Pacoti, Brazil
Current Conditions -  °F | °C
As of 8:00 PM on Monday 24 Nov 2014 (Local Time) from SBFZ Reporting Station
Scattered Clouds Scattered Clouds  
Wind Chill: 81°   Ceiling: Unl
Heat Index: 84°   Visibility: 6mi
Dew Point: 70°   Wind: 12mph
Humidity: 70%   Direction: 80°E
Pressure: 29.91"   Gusts: NA
Location:  4.23°S, 38.92°W
Report Text: SBFZ 242300Z 08010KT 9999 SCT020 27/21 Q1013
Loading
Personal Weather Stations






























Interactive Weather Map New forecast layout! Learn more

10-Day Weather Forecast

Advertisements
Track Severe Weather on mobile